sensor_id;sensor_type;location;lat;lon;timestamp;P1;durP1;ratioP1;P2;durP2;ratioP2
19223;SDS011;9746;47.180;9.776;2023-03-16T08:52:18;0.30;;;0.30;;
19223;SDS011;9746;47.180;9.776;2023-03-16T08:54:47;0.20;;;0.20;;
19223;SDS011;9746;47.180;9.776;2023-03-16T09:00:20;0.20;;;0.20;;
19223;SDS011;9746;47.180;9.776;2023-03-16T09:02:49;0.20;;;0.20;;
19223;SDS011;9746;47.180;9.776;2023-03-16T09:05:16;0.20;;;0.20;;
19223;SDS011;9746;47.180;9.776;2023-03-16T09:07:45;0.30;;;0.30;;
19223;SDS011;9746;47.180;9.776;2023-03-16T09:10:12;0.20;;;0.20;;
19223;SDS011;9746;47.180;9.776;2023-03-16T09:15:11;0.20;;;0.20;;
19223;SDS011;9746;47.180;9.776;2023-03-16T09:17:52;0.20;;;0.20;;
19223;SDS011;9746;47.180;9.776;2023-03-16T09:20:21;0.30;;;0.30;;
19223;SDS011;9746;47.180;9.776;2023-03-16T09:22:51;0.30;;;0.30;;
19223;SDS011;9746;47.180;9.776;2023-03-16T09:25:20;0.20;;;0.20;;
19223;SDS011;9746;47.180;9.776;2023-03-16T09:27:48;0.20;;;0.20;;
19223;SDS011;9746;47.180;9.776;2023-03-16T09:30:15;0.20;;;0.20;;
19223;SDS011;9746;47.180;9.776;2023-03-16T09:35:20;0.20;;;0.20;;
19223;SDS011;9746;47.180;9.776;2023-03-16T09:37:48;0.20;;;0.20;;
19223;SDS011;9746;47.180;9.776;2023-03-16T09:40:21;0.20;;;0.20;;
19223;SDS011;9746;47.180;9.776;2023-03-16T09:43:01;0.20;;;0.20;;
19223;SDS011;9746;47.180;9.776;2023-03-16T09:45:53;0.20;;;0.20;;
19223;SDS011;9746;47.180;9.776;2023-03-16T09:48:27;0.20;;;0.20;;
19223;SDS011;9746;47.180;9.776;2023-03-16T09:50:58;0.25;;;0.25;;
19223;SDS011;9746;47.180;9.776;2023-03-16T09:53:28;0.20;;;0.20;;
19223;SDS011;9746;47.180;9.776;2023-03-16T09:56:02;0.20;;;0.20;;
19223;SDS011;9746;47.180;9.776;2023-03-16T09:58:32;0.20;;;0.20;;
19223;SDS011;9746;47.180;9.776;2023-03-16T10:01:06;0.20;;;0.20;;
19223;SDS011;9746;47.180;9.776;2023-03-16T10:06:41;0.20;;;0.20;;
19223;SDS011;9746;47.180;9.776;2023-03-16T10:09:16;0.20;;;0.20;;
19223;SDS011;9746;47.180;9.776;2023-03-16T10:11:54;0.20;;;0.20;;
19223;SDS011;9746;47.180;9.776;2023-03-16T10:14:23;0.10;;;0.10;;
19223;SDS011;9746;47.180;9.776;2023-03-16T10:19:44;0.20;;;0.20;;
19223;SDS011;9746;47.180;9.776;2023-03-16T10:22:18;0.15;;;0.15;;
19223;SDS011;9746;47.180;9.776;2023-03-16T10:24:51;0.10;;;0.10;;
19223;SDS011;9746;47.180;9.776;2023-03-16T10:27:36;0.10;;;0.10;;
19223;SDS011;9746;47.180;9.776;2023-03-16T10:30:06;0.17;;;0.17;;
19223;SDS011;9746;47.180;9.776;2023-03-16T10:32:47;0.10;;;0.10;;
19223;SDS011;9746;47.180;9.776;2023-03-16T10:35:17;0.10;;;0.10;;
19223;SDS011;9746;47.180;9.776;2023-03-16T10:37:56;0.20;;;0.20;;
19223;SDS011;9746;47.180;9.776;2023-03-16T10:40:24;0.10;;;0.10;;
19223;SDS011;9746;47.180;9.776;2023-03-16T10:42:55;0.10;;;0.10;;
19223;SDS011;9746;47.180;9.776;2023-03-16T10:45:23;0.10;;;0.10;;
19223;SDS011;9746;47.180;9.776;2023-03-16T10:48:07;0.10;;;0.10;;
19223;SDS011;9746;47.180;9.776;2023-03-16T10:50:40;0.10;;;0.10;;
19223;SDS011;9746;47.180;9.776;2023-03-16T10:53:13;0.10;;;0.10;;
19223;SDS011;9746;47.180;9.776;2023-03-16T10:55:44;0.10;;;0.10;;
19223;SDS011;9746;47.180;9.776;2023-03-16T11:00:52;0.10;;;0.10;;
19223;SDS011;9746;47.180;9.776;2023-03-16T11:03:21;0.10;;;0.10;;
19223;SDS011;9746;47.180;9.776;2023-03-16T11:05:56;0.10;;;0.10;;
19223;SDS011;9746;47.180;9.776;2023-03-16T11:10:58;0.17;;;0.17;;
19223;SDS011;9746;47.180;9.776;2023-03-16T11:13:36;0.10;;;0.10;;
19223;SDS011;9746;47.180;9.776;2023-03-16T11:16:06;0.10;;;0.10;;
19223;SDS011;9746;47.180;9.776;2023-03-16T11:18:47;0.10;;;0.10;;
19223;SDS011;9746;47.180;9.776;2023-03-16T11:21:21;0.10;;;0.10;;
19223;SDS011;9746;47.180;9.776;2023-03-16T11:23:57;0.10;;;0.10;;
19223;SDS011;9746;47.180;9.776;2023-03-16T11:26:30;0.10;;;0.10;;
19223;SDS011;9746;47.180;9.776;2023-03-16T11:29:04;0.10;;;0.10;;
19223;SDS011;9746;47.180;9.776;2023-03-16T11:31:44;0.10;;;0.10;;
19223;SDS011;9746;47.180;9.776;2023-03-16T11:34:26;0.10;;;0.10;;
19223;SDS011;9746;47.180;9.776;2023-03-16T11:36:59;0.10;;;0.10;;
19223;SDS011;9746;47.180;9.776;2023-03-16T11:39:41;0.10;;;0.10;;
19223;SDS011;9746;47.180;9.776;2023-03-16T11:44:59;0.10;;;0.10;;
19223;SDS011;9746;47.180;9.776;2023-03-16T11:47:38;0.10;;;0.10;;
19223;SDS011;9746;47.180;9.776;2023-03-16T11:50:23;0.10;;;0.10;;
19223;SDS011;9746;47.180;9.776;2023-03-16T11:52:58;0.10;;;0.10;;
19223;SDS011;9746;47.180;9.776;2023-03-16T11:55:34;0.10;;;0.10;;
19223;SDS011;9746;47.180;9.776;2023-03-16T11:58:18;0.10;;;0.10;;
19223;SDS011;9746;47.180;9.776;2023-03-16T12:00:56;0.10;;;0.10;;
19223;SDS011;9746;47.180;9.776;2023-03-16T12:03:37;0.10;;;0.10;;
19223;SDS011;9746;47.180;9.776;2023-03-16T12:06:22;0.10;;;0.10;;
19223;SDS011;9746;47.180;9.776;2023-03-16T12:09:15;0.10;;;0.10;;
19223;SDS011;9746;47.180;9.776;2023-03-16T12:14:59;0.10;;;0.10;;
19223;SDS011;9746;47.180;9.776;2023-03-16T12:17:37;0.10;;;0.10;;
19223;SDS011;9746;47.180;9.776;2023-03-16T12:20:09;0.10;;;0.10;;
19223;SDS011;9746;47.180;9.776;2023-03-16T12:25:24;0.10;;;0.10;;
19223;SDS011;9746;47.180;9.776;2023-03-16T12:30:49;0.10;;;0.10;;
19223;SDS011;9746;47.180;9.776;2023-03-16T12:46:18;0.10;;;0.10;;
19223;SDS011;9746;47.180;9.776;2023-03-16T12:49:00;0.10;;;0.10;;
19223;SDS011;9746;47.180;9.776;2023-03-16T12:51:34;0.10;;;0.10;;
19223;SDS011;9746;47.180;9.776;2023-03-16T12:54:16;0.10;;;0.10;;
19223;SDS011;9746;47.180;9.776;2023-03-16T12:56:48;0.10;;;0.10;;
19223;SDS011;9746;47.180;9.776;2023-03-16T12:59:34;0.10;;;0.10;;
19223;SDS011;9746;47.180;9.776;2023-03-16T13:02:13;0.00;;;0.00;;
19223;SDS011;9746;47.180;9.776;2023-03-16T13:04:57;0.10;;;0.10;;
19223;SDS011;9746;47.180;9.776;2023-03-16T13:07:34;0.10;;;0.10;;
19223;SDS011;9746;47.180;9.776;2023-03-16T13:10:15;0.00;;;0.00;;
19223;SDS011;9746;47.180;9.776;2023-03-16T13:13:11;0.10;;;0.10;;
19223;SDS011;9746;47.180;9.776;2023-03-16T13:16:01;0.00;;;0.00;;
19223;SDS011;9746;47.180;9.776;2023-03-16T13:18:41;0.00;;;0.00;;
19223;SDS011;9746;47.180;9.776;2023-03-16T13:21:14;0.00;;;0.00;;
19223;SDS011;9746;47.180;9.776;2023-03-16T13:23:53;0.10;;;0.10;;
19223;SDS011;9746;47.180;9.776;2023-03-16T13:26:39;0.10;;;0.10;;
19223;SDS011;9746;47.180;9.776;2023-03-16T13:29:24;0.00;;;0.00;;
19223;SDS011;9746;47.180;9.776;2023-03-16T13:31:52;0.00;;;0.00;;
19223;SDS011;9746;47.180;9.776;2023-03-16T13:34:34;0.00;;;0.00;;
19223;SDS011;9746;47.180;9.776;2023-03-16T13:37:12;0.00;;;0.00;;
19223;SDS011;9746;47.180;9.776;2023-03-16T13:42:29;0.00;;;0.00;;
19223;SDS011;9746;47.180;9.776;2023-03-16T13:45:12;0.00;;;0.00;;
19223;SDS011;9746;47.180;9.776;2023-03-16T13:47:43;0.00;;;0.00;;
19223;SDS011;9746;47.180;9.776;2023-03-16T13:50:23;0.00;;;0.00;;
19223;SDS011;9746;47.180;9.776;2023-03-16T13:53:22;0.00;;;0.00;;
19223;SDS011;9746;47.180;9.776;2023-03-16T13:55:53;0.00;;;0.00;;
19223;SDS011;9746;47.180;9.776;2023-03-16T14:01:26;0.00;;;0.00;;
19223;SDS011;9746;47.180;9.776;2023-03-16T14:07:17;0.00;;;0.00;;
19223;SDS011;9746;47.180;9.776;2023-03-16T14:09:50;0.00;;;0.00;;
19223;SDS011;9746;47.180;9.776;2023-03-16T14:12:22;0.00;;;0.00;;
19223;SDS011;9746;47.180;9.776;2023-03-16T14:18:03;0.00;;;0.00;;
19223;SDS011;9746;47.180;9.776;2023-03-16T14:20:40;0.00;;;0.00;;
19223;SDS011;9746;47.180;9.776;2023-03-16T14:23:16;0.00;;;0.00;;
19223;SDS011;9746;47.180;9.776;2023-03-16T14:25:46;0.00;;;0.00;;
19223;SDS011;9746;47.180;9.776;2023-03-16T14:28:14;0.00;;;0.00;;
19223;SDS011;9746;47.180;9.776;2023-03-16T14:30:49;0.00;;;0.00;;
19223;SDS011;9746;47.180;9.776;2023-03-16T14:33:28;0.00;;;0.00;;
19223;SDS011;9746;47.180;9.776;2023-03-16T14:35:58;0.00;;;0.00;;
19223;SDS011;9746;47.180;9.776;2023-03-16T14:38:34;0.00;;;0.00;;
19223;SDS011;9746;47.180;9.776;2023-03-16T14:41:09;0.00;;;0.00;;
19223;SDS011;9746;47.180;9.776;2023-03-16T14:46:43;0.00;;;0.00;;
19223;SDS011;9746;47.180;9.776;2023-03-16T14:51:54;0.00;;;0.00;;
19223;SDS011;9746;47.180;9.776;2023-03-16T14:54:28;0.00;;;0.00;;
19223;SDS011;9746;47.180;9.776;2023-03-16T14:56:58;0.00;;;0.00;;
19223;SDS011;9746;47.180;9.776;2023-03-16T14:59:34;0.00;;;0.00;;
19223;SDS011;9746;47.180;9.776;2023-03-16T15:02:01;0.00;;;0.00;;
19223;SDS011;9746;47.180;9.776;2023-03-16T15:04:43;0.00;;;0.00;;
19223;SDS011;9746;47.180;9.776;2023-03-16T15:07:19;0.00;;;0.00;;
19223;SDS011;9746;47.180;9.776;2023-03-16T15:13:12;0.00;;;0.00;;
19223;SDS011;9746;47.180;9.776;2023-03-16T15:15:59;0.00;;;0.00;;
19223;SDS011;9746;47.180;9.776;2023-03-16T15:18:41;0.00;;;0.00;;
19223;SDS011;9746;47.180;9.776;2023-03-16T15:21:10;0.00;;;0.00;;
19223;SDS011;9746;47.180;9.776;2023-03-16T15:23:40;0.00;;;0.00;;
19223;SDS011;9746;47.180;9.776;2023-03-16T15:26:08;0.00;;;0.00;;
19223;SDS011;9746;47.180;9.776;2023-03-16T15:28:36;0.00;;;0.00;;
19223;SDS011;9746;47.180;9.776;2023-03-16T15:31:04;0.00;;;0.00;;
19223;SDS011;9746;47.180;9.776;2023-03-16T15:33:34;0.00;;;0.00;;
19223;SDS011;9746;47.180;9.776;2023-03-16T15:36:05;0.00;;;0.00;;
19223;SDS011;9746;47.180;9.776;2023-03-16T15:38:48;0.00;;;0.00;;
19223;SDS011;9746;47.180;9.776;2023-03-16T15:41:18;0.00;;;0.00;;
19223;SDS011;9746;47.180;9.776;2023-03-16T15:47:08;0.00;;;0.00;;
19223;SDS011;9746;47.180;9.776;2023-03-16T15:49:36;0.00;;;0.00;;
19223;SDS011;9746;47.180;9.776;2023-03-16T15:52:06;0.00;;;0.00;;
19223;SDS011;9746;47.180;9.776;2023-03-16T15:57:39;0.10;;;0.10;;
19223;SDS011;9746;47.180;9.776;2023-03-16T16:03:39;0.10;;;0.10;;
19223;SDS011;9746;47.180;9.776;2023-03-16T16:06:08;0.10;;;0.10;;
19223;SDS011;9746;47.180;9.776;2023-03-16T16:08:38;0.10;;;0.10;;
19223;SDS011;9746;47.180;9.776;2023-03-16T16:14:23;0.10;;;0.10;;
19223;SDS011;9746;47.180;9.776;2023-03-16T16:16:52;0.10;;;0.10;;
19223;SDS011;9746;47.180;9.776;2023-03-16T16:19:19;0.10;;;0.10;;
19223;SDS011;9746;47.180;9.776;2023-03-16T16:21:47;0.10;;;0.10;;
19223;SDS011;9746;47.180;9.776;2023-03-16T16:27:17;0.10;;;0.10;;
19223;SDS011;9746;47.180;9.776;2023-03-16T16:29:56;0.20;;;0.20;;
19223;SDS011;9746;47.180;9.776;2023-03-16T16:32:24;0.20;;;0.20;;
19223;SDS011;9746;47.180;9.776;2023-03-16T16:37:45;0.10;;;0.10;;
19223;SDS011;9746;47.180;9.776;2023-03-16T16:40:38;0.10;;;0.10;;
19223;SDS011;9746;47.180;9.776;2023-03-16T16:43:11;0.20;;;0.20;;
19223;SDS011;9746;47.180;9.776;2023-03-16T16:46:09;0.15;;;0.15;;
19223;SDS011;9746;47.180;9.776;2023-03-16T16:48:41;0.17;;;0.17;;
19223;SDS011;9746;47.180;9.776;2023-03-16T16:51:19;0.20;;;0.20;;
19223;SDS011;9746;47.180;9.776;2023-03-16T16:53:49;0.10;;;0.10;;
19223;SDS011;9746;47.180;9.776;2023-03-16T16:56:19;0.20;;;0.20;;
19223;SDS011;9746;47.180;9.776;2023-03-16T16:58:53;0.20;;;0.20;;
19223;SDS011;9746;47.180;9.776;2023-03-16T17:01:29;0.20;;;0.20;;
19223;SDS011;9746;47.180;9.776;2023-03-16T17:03:58;0.20;;;0.20;;
19223;SDS011;9746;47.180;9.776;2023-03-16T17:08:57;0.20;;;0.20;;
19223;SDS011;9746;47.180;9.776;2023-03-16T17:14:14;0.20;;;0.20;;
19223;SDS011;9746;47.180;9.776;2023-03-16T17:16:43;0.20;;;0.20;;
19223;SDS011;9746;47.180;9.776;2023-03-16T17:21:55;0.20;;;0.20;;
19223;SDS011;9746;47.180;9.776;2023-03-16T17:24:24;0.20;;;0.20;;
19223;SDS011;9746;47.180;9.776;2023-03-16T17:26:54;0.20;;;0.20;;
19223;SDS011;9746;47.180;9.776;2023-03-16T17:29:26;0.20;;;0.20;;
19223;SDS011;9746;47.180;9.776;2023-03-16T17:31:56;0.30;;;0.30;;
19223;SDS011;9746;47.180;9.776;2023-03-16T17:34:26;0.30;;;0.30;;
19223;SDS011;9746;47.180;9.776;2023-03-16T17:36:56;0.20;;;0.20;;
19223;SDS011;9746;47.180;9.776;2023-03-16T17:39:24;0.30;;;0.30;;
19223;SDS011;9746;47.180;9.776;2023-03-16T17:41:53;0.23;;;0.23;;
19223;SDS011;9746;47.180;9.776;2023-03-16T17:44:23;0.30;;;0.30;;
19223;SDS011;9746;47.180;9.776;2023-03-16T17:46:58;0.20;;;0.20;;
19223;SDS011;9746;47.180;9.776;2023-03-16T17:49:25;0.20;;;0.20;;
19223;SDS011;9746;47.180;9.776;2023-03-16T17:51:54;0.20;;;0.20;;
19223;SDS011;9746;47.180;9.776;2023-03-16T17:54:22;0.20;;;0.20;;
19223;SDS011;9746;47.180;9.776;2023-03-16T17:56:50;0.20;;;0.20;;
19223;SDS011;9746;47.180;9.776;2023-03-16T17:59:18;0.27;;;0.27;;
19223;SDS011;9746;47.180;9.776;2023-03-16T18:01:50;0.20;;;0.20;;
19223;SDS011;9746;47.180;9.776;2023-03-16T18:04:18;0.30;;;0.30;;
19223;SDS011;9746;47.180;9.776;2023-03-16T18:06:49;0.20;;;0.20;;
19223;SDS011;9746;47.180;9.776;2023-03-16T18:09:19;0.30;;;0.30;;
19223;SDS011;9746;47.180;9.776;2023-03-16T18:14:51;0.30;;;0.30;;
19223;SDS011;9746;47.180;9.776;2023-03-16T18:17:25;0.20;;;0.20;;
19223;SDS011;9746;47.180;9.776;2023-03-16T18:19:56;0.20;;;0.20;;
19223;SDS011;9746;47.180;9.776;2023-03-16T18:22:24;0.30;;;0.30;;
19223;SDS011;9746;47.180;9.776;2023-03-16T18:24:52;0.30;;;0.30;;
19223;SDS011;9746;47.180;9.776;2023-03-16T18:27:21;0.30;;;0.30;;
19223;SDS011;9746;47.180;9.776;2023-03-16T18:29:50;0.27;;;0.27;;
19223;SDS011;9746;47.180;9.776;2023-03-16T18:32:19;0.20;;;0.20;;
19223;SDS011;9746;47.180;9.776;2023-03-16T18:34:53;0.30;;;0.30;;
19223;SDS011;9746;47.180;9.776;2023-03-16T18:37:23;0.30;;;0.30;;
19223;SDS011;9746;47.180;9.776;2023-03-16T18:40:00;0.30;;;0.30;;
19223;SDS011;9746;47.180;9.776;2023-03-16T18:42:28;0.30;;;0.30;;
19223;SDS011;9746;47.180;9.776;2023-03-16T18:44:56;0.20;;;0.20;;
19223;SDS011;9746;47.180;9.776;2023-03-16T18:47:34;0.30;;;0.30;;
19223;SDS011;9746;47.180;9.776;2023-03-16T18:50:05;0.30;;;0.30;;
19223;SDS011;9746;47.180;9.776;2023-03-16T18:52:41;0.20;;;0.20;;
19223;SDS011;9746;47.180;9.776;2023-03-16T18:55:13;0.20;;;0.20;;
19223;SDS011;9746;47.180;9.776;2023-03-16T18:57:43;0.20;;;0.20;;
19223;SDS011;9746;47.180;9.776;2023-03-16T19:00:19;0.30;;;0.30;;
19223;SDS011;9746;47.180;9.776;2023-03-16T19:02:51;0.20;;;0.20;;
19223;SDS011;9746;47.180;9.776;2023-03-16T19:05:29;0.30;;;0.30;;
19223;SDS011;9746;47.180;9.776;2023-03-16T19:08:01;0.30;;;0.30;;
19223;SDS011;9746;47.180;9.776;2023-03-16T19:10:34;0.23;;;0.23;;
19223;SDS011;9746;47.180;9.776;2023-03-16T19:13:14;0.30;;;0.30;;
19223;SDS011;9746;47.180;9.776;2023-03-16T19:15:54;0.30;;;0.30;;
19223;SDS011;9746;47.180;9.776;2023-03-16T19:18:43;0.20;;;0.20;;
19223;SDS011;9746;47.180;9.776;2023-03-16T19:21:18;0.20;;;0.20;;
19223;SDS011;9746;47.180;9.776;2023-03-16T19:24:02;0.30;;;0.30;;
19223;SDS011;9746;47.180;9.776;2023-03-16T19:26:49;0.30;;;0.30;;
19223;SDS011;9746;47.180;9.776;2023-03-16T19:29:19;0.30;;;0.30;;
19223;SDS011;9746;47.180;9.776;2023-03-16T19:31:55;0.30;;;0.30;;
19223;SDS011;9746;47.180;9.776;2023-03-16T19:34:31;0.20;;;0.20;;
19223;SDS011;9746;47.180;9.776;2023-03-16T19:37:19;0.30;;;0.30;;
19223;SDS011;9746;47.180;9.776;2023-03-16T19:39:51;0.30;;;0.30;;
19223;SDS011;9746;47.180;9.776;2023-03-16T19:42:24;0.30;;;0.30;;
19223;SDS011;9746;47.180;9.776;2023-03-16T19:44:58;0.27;;;0.27;;
19223;SDS011;9746;47.180;9.776;2023-03-16T19:47:42;0.30;;;0.30;;
19223;SDS011;9746;47.180;9.776;2023-03-16T19:50:15;0.30;;;0.30;;
19223;SDS011;9746;47.180;9.776;2023-03-16T19:52:45;0.30;;;0.30;;
19223;SDS011;9746;47.180;9.776;2023-03-16T19:55:17;0.30;;;0.30;;
19223;SDS011;9746;47.180;9.776;2023-03-16T19:58:01;0.30;;;0.30;;
19223;SDS011;9746;47.180;9.776;2023-03-16T20:00:32;0.30;;;0.30;;
19223;SDS011;9746;47.180;9.776;2023-03-16T20:05:46;0.30;;;0.30;;
19223;SDS011;9746;47.180;9.776;2023-03-16T20:08:24;0.30;;;0.30;;
19223;SDS011;9746;47.180;9.776;2023-03-16T20:10:55;0.40;;;0.40;;
19223;SDS011;9746;47.180;9.776;2023-03-16T20:16:34;0.30;;;0.30;;
19223;SDS011;9746;47.180;9.776;2023-03-16T20:19:02;0.30;;;0.30;;
19223;SDS011;9746;47.180;9.776;2023-03-16T20:21:36;0.30;;;0.30;;
19223;SDS011;9746;47.180;9.776;2023-03-16T20:24:23;0.30;;;0.30;;
19223;SDS011;9746;47.180;9.776;2023-03-16T20:26:53;0.30;;;0.30;;
19223;SDS011;9746;47.180;9.776;2023-03-16T20:29:23;0.30;;;0.30;;
19223;SDS011;9746;47.180;9.776;2023-03-16T20:31:55;0.30;;;0.30;;
19223;SDS011;9746;47.180;9.776;2023-03-16T20:34:24;0.30;;;0.30;;
19223;SDS011;9746;47.180;9.776;2023-03-16T20:36:53;0.30;;;0.30;;
19223;SDS011;9746;47.180;9.776;2023-03-16T20:42:23;0.30;;;0.30;;
19223;SDS011;9746;47.180;9.776;2023-03-16T20:44:54;0.30;;;0.30;;
19223;SDS011;9746;47.180;9.776;2023-03-16T20:50:31;0.30;;;0.30;;
